sensor_id;sensor_type;location;lat;lon;timestamp;temperature;humidity
9849;DHT22;4963;51.444;6.528;2023-02-26T00:00:04;1.80;99.90
9849;DHT22;4963;51.444;6.528;2023-02-26T00:02:33;1.70;99.90
9849;DHT22;4963;51.444;6.528;2023-02-26T00:05:02;1.70;99.90
9849;DHT22;4963;51.444;6.528;2023-02-26T00:07:29;1.80;99.90
9849;DHT22;4963;51.444;6.528;2023-02-26T00:09:56;1.70;99.90
9849;DHT22;4963;51.444;6.528;2023-02-26T00:12:23;1.60;99.90
9849;DHT22;4963;51.444;6.528;2023-02-26T00:14:52;1.60;99.90
9849;DHT22;4963;51.444;6.528;2023-02-26T00:17:31;1.60;99.90
9849;DHT22;4963;51.444;6.528;2023-02-26T00:20:02;1.70;99.90
9849;DHT22;4963;51.444;6.528;2023-02-26T00:22:29;1.60;99.90
9849;DHT22;4963;51.444;6.528;2023-02-26T00:24:56;1.70;99.90
9849;DHT22;4963;51.444;6.528;2023-02-26T00:27:23;1.70;99.90
9849;DHT22;4963;51.444;6.528;2023-02-26T00:29:50;1.70;99.90
9849;DHT22;4963;51.444;6.528;2023-02-26T00:32:18;1.70;99.90
9849;DHT22;4963;51.444;6.528;2023-02-26T00:34:46;1.70;99.90
9849;DHT22;4963;51.444;6.528;2023-02-26T00:37:33;1.70;99.90
9849;DHT22;4963;51.444;6.528;2023-02-26T00:40:14;1.60;99.90
9849;DHT22;4963;51.444;6.528;2023-02-26T00:42:43;1.60;99.90
9849;DHT22;4963;51.444;6.528;2023-02-26T00:45:11;1.60;99.90
9849;DHT22;4963;51.444;6.528;2023-02-26T00:47:44;1.50;99.90
9849;DHT22;4963;51.444;6.528;2023-02-26T00:50:17;1.60;99.90
9849;DHT22;4963;51.444;6.528;2023-02-26T00:52:52;1.60;99.90
9849;DHT22;4963;51.444;6.528;2023-02-26T00:55:20;1.60;99.90
9849;DHT22;4963;51.444;6.528;2023-02-26T00:57:46;1.50;99.90
9849;DHT22;4963;51.444;6.528;2023-02-26T01:00:14;1.50;99.90
9849;DHT22;4963;51.444;6.528;2023-02-26T01:02:42;1.40;99.90
9849;DHT22;4963;51.444;6.528;2023-02-26T01:05:10;1.50;99.90
9849;DHT22;4963;51.444;6.528;2023-02-26T01:07:40;1.50;99.90
9849;DHT22;4963;51.444;6.528;2023-02-26T01:10:11;1.50;99.90
9849;DHT22;4963;51.444;6.528;2023-02-26T01:12:38;1.40;99.90
9849;DHT22;4963;51.444;6.528;2023-02-26T01:15:06;1.50;99.90
9849;DHT22;4963;51.444;6.528;2023-02-26T01:17:37;1.40;99.90
9849;DHT22;4963;51.444;6.528;2023-02-26T01:20:10;1.40;99.90
9849;DHT22;4963;51.444;6.528;2023-02-26T01:22:43;1.40;99.90
9849;DHT22;4963;51.444;6.528;2023-02-26T01:25:17;1.30;99.90
9849;DHT22;4963;51.444;6.528;2023-02-26T01:27:44;1.30;99.90
9849;DHT22;4963;51.444;6.528;2023-02-26T01:30:12;1.30;99.90
9849;DHT22;4963;51.444;6.528;2023-02-26T01:32:43;1.30;99.90
9849;DHT22;4963;51.444;6.528;2023-02-26T01:35:20;1.10;99.90
9849;DHT22;4963;51.444;6.528;2023-02-26T01:37:51;1.30;99.90
9849;DHT22;4963;51.444;6.528;2023-02-26T01:40:59;1.20;99.90
9849;DHT22;4963;51.444;6.528;2023-02-26T01:43:33;1.20;99.90
9849;DHT22;4963;51.444;6.528;2023-02-26T01:46:05;1.10;99.90
9849;DHT22;4963;51.444;6.528;2023-02-26T01:48:37;1.10;99.90
9849;DHT22;4963;51.444;6.528;2023-02-26T01:51:08;1.10;99.90
9849;DHT22;4963;51.444;6.528;2023-02-26T01:53:35;1.00;99.90
9849;DHT22;4963;51.444;6.528;2023-02-26T01:56:08;1.00;99.90
9849;DHT22;4963;51.444;6.528;2023-02-26T01:58:39;1.00;99.90
9849;DHT22;4963;51.444;6.528;2023-02-26T02:01:06;1.00;99.90
9849;DHT22;4963;51.444;6.528;2023-02-26T02:03:36;1.00;99.90
9849;DHT22;4963;51.444;6.528;2023-02-26T02:06:06;1.00;99.90
9849;DHT22;4963;51.444;6.528;2023-02-26T02:08:34;0.90;99.90
9849;DHT22;4963;51.444;6.528;2023-02-26T02:11:03;0.90;99.90
9849;DHT22;4963;51.444;6.528;2023-02-26T02:13:42;0.90;99.90
9849;DHT22;4963;51.444;6.528;2023-02-26T02:16:19;0.90;99.90
9849;DHT22;4963;51.444;6.528;2023-02-26T02:18:52;0.80;99.90
9849;DHT22;4963;51.444;6.528;2023-02-26T02:21:45;0.80;99.90
9849;DHT22;4963;51.444;6.528;2023-02-26T02:24:16;0.80;99.90
9849;DHT22;4963;51.444;6.528;2023-02-26T02:26:57;0.80;99.90
9849;DHT22;4963;51.444;6.528;2023-02-26T02:29:59;0.80;99.90
9849;DHT22;4963;51.444;6.528;2023-02-26T02:32:33;0.80;99.90
9849;DHT22;4963;51.444;6.528;2023-02-26T02:35:08;0.70;99.90
9849;DHT22;4963;51.444;6.528;2023-02-26T02:37:42;0.90;99.90
9849;DHT22;4963;51.444;6.528;2023-02-26T02:40:14;0.70;99.90
9849;DHT22;4963;51.444;6.528;2023-02-26T02:42:45;0.60;99.90
9849;DHT22;4963;51.444;6.528;2023-02-26T02:45:16;0.60;99.90
9849;DHT22;4963;51.444;6.528;2023-02-26T02:47:48;0.60;99.90
9849;DHT22;4963;51.444;6.528;2023-02-26T02:50:23;0.60;99.90
9849;DHT22;4963;51.444;6.528;2023-02-26T02:52:55;0.60;99.90
9849;DHT22;4963;51.444;6.528;2023-02-26T02:55:25;0.60;99.90
9849;DHT22;4963;51.444;6.528;2023-02-26T02:57:57;0.70;99.90
9849;DHT22;4963;51.444;6.528;2023-02-26T03:00:27;0.70;99.90
9849;DHT22;4963;51.444;6.528;2023-02-26T03:02:59;0.70;99.90
9849;DHT22;4963;51.444;6.528;2023-02-26T03:05:28;0.70;99.90
9849;DHT22;4963;51.444;6.528;2023-02-26T03:07:57;0.70;99.90
9849;DHT22;4963;51.444;6.528;2023-02-26T03:10:24;0.70;99.90
9849;DHT22;4963;51.444;6.528;2023-02-26T03:12:51;0.70;99.90
9849;DHT22;4963;51.444;6.528;2023-02-26T03:15:25;0.70;99.90
9849;DHT22;4963;51.444;6.528;2023-02-26T03:18:01;0.70;99.90
9849;DHT22;4963;51.444;6.528;2023-02-26T03:20:34;0.70;99.90
9849;DHT22;4963;51.444;6.528;2023-02-26T03:23:08;0.70;99.90
9849;DHT22;4963;51.444;6.528;2023-02-26T03:25:44;0.70;99.90
9849;DHT22;4963;51.444;6.528;2023-02-26T03:28:17;0.60;99.90
9849;DHT22;4963;51.444;6.528;2023-02-26T03:30:51;0.60;99.90
9849;DHT22;4963;51.444;6.528;2023-02-26T03:33:26;0.60;99.90
9849;DHT22;4963;51.444;6.528;2023-02-26T03:35:57;0.60;99.90
9849;DHT22;4963;51.444;6.528;2023-02-26T03:38:30;0.50;99.90
9849;DHT22;4963;51.444;6.528;2023-02-26T03:41:00;0.50;99.90
9849;DHT22;4963;51.444;6.528;2023-02-26T03:43:32;0.50;99.90
9849;DHT22;4963;51.444;6.528;2023-02-26T03:46:04;0.50;99.90
9849;DHT22;4963;51.444;6.528;2023-02-26T03:48:34;0.50;99.90
9849;DHT22;4963;51.444;6.528;2023-02-26T03:51:04;0.50;99.90
9849;DHT22;4963;51.444;6.528;2023-02-26T03:53:35;0.40;99.90
9849;DHT22;4963;51.444;6.528;2023-02-26T03:56:08;0.40;99.90
9849;DHT22;4963;51.444;6.528;2023-02-26T03:58:36;0.40;99.90
9849;DHT22;4963;51.444;6.528;2023-02-26T04:01:10;0.40;99.90
9849;DHT22;4963;51.444;6.528;2023-02-26T04:03:44;0.60;99.90
9849;DHT22;4963;51.444;6.528;2023-02-26T04:06:12;0.50;99.90
9849;DHT22;4963;51.444;6.528;2023-02-26T04:08:39;0.50;99.90
9849;DHT22;4963;51.444;6.528;2023-02-26T04:11:09;0.40;99.90
9849;DHT22;4963;51.444;6.528;2023-02-26T04:13:37;0.40;99.90
9849;DHT22;4963;51.444;6.528;2023-02-26T04:16:04;0.40;99.90
9849;DHT22;4963;51.444;6.528;2023-02-26T04:18:31;0.30;99.90
9849;DHT22;4963;51.444;6.528;2023-02-26T04:20:59;0.30;99.90
9849;DHT22;4963;51.444;6.528;2023-02-26T04:23:26;0.30;99.90
9849;DHT22;4963;51.444;6.528;2023-02-26T04:25:53;0.20;99.90
9849;DHT22;4963;51.444;6.528;2023-02-26T04:28:20;0.20;99.90
9849;DHT22;4963;51.444;6.528;2023-02-26T04:30:47;0.30;99.90
9849;DHT22;4963;51.444;6.528;2023-02-26T04:33:14;0.30;99.90
9849;DHT22;4963;51.444;6.528;2023-02-26T04:35:41;0.20;99.90
9849;DHT22;4963;51.444;6.528;2023-02-26T04:38:09;0.20;99.90
9849;DHT22;4963;51.444;6.528;2023-02-26T04:40:36;0.20;99.90
9849;DHT22;4963;51.444;6.528;2023-02-26T04:43:03;0.20;99.90
9849;DHT22;4963;51.444;6.528;2023-02-26T04:45:29;0.10;99.90
9849;DHT22;4963;51.444;6.528;2023-02-26T04:47:56;0.10;99.90
9849;DHT22;4963;51.444;6.528;2023-02-26T04:50:23;0.20;99.90
9849;DHT22;4963;51.444;6.528;2023-02-26T04:52:50;0.20;99.90
9849;DHT22;4963;51.444;6.528;2023-02-26T04:55:18;0.10;99.90
9849;DHT22;4963;51.444;6.528;2023-02-26T04:57:45;0.10;99.90
9849;DHT22;4963;51.444;6.528;2023-02-26T05:00:13;0.10;99.90
9849;DHT22;4963;51.444;6.528;2023-02-26T05:02:41;0.10;99.90
9849;DHT22;4963;51.444;6.528;2023-02-26T05:05:08;0.00;99.90
9849;DHT22;4963;51.444;6.528;2023-02-26T05:07:35;0.00;99.90
9849;DHT22;4963;51.444;6.528;2023-02-26T05:10:03;0.00;99.90
9849;DHT22;4963;51.444;6.528;2023-02-26T05:12:31;-0.10;99.90
9849;DHT22;4963;51.444;6.528;2023-02-26T05:14:58;-0.10;99.90
9849;DHT22;4963;51.444;6.528;2023-02-26T05:17:25;-0.10;99.90
9849;DHT22;4963;51.444;6.528;2023-02-26T05:19:52;-0.10;99.90
9849;DHT22;4963;51.444;6.528;2023-02-26T05:22:19;-0.10;99.90
9849;DHT22;4963;51.444;6.528;2023-02-26T05:24:46;-0.10;99.90
9849;DHT22;4963;51.444;6.528;2023-02-26T05:27:12;-0.10;99.90
9849;DHT22;4963;51.444;6.528;2023-02-26T05:29:41;0.00;99.90
9849;DHT22;4963;51.444;6.528;2023-02-26T05:32:09;0.00;99.90
9849;DHT22;4963;51.444;6.528;2023-02-26T05:34:36;0.00;99.90
9849;DHT22;4963;51.444;6.528;2023-02-26T05:37:03;0.00;99.90
9849;DHT22;4963;51.444;6.528;2023-02-26T05:39:30;0.00;99.90
9849;DHT22;4963;51.444;6.528;2023-02-26T05:41:57;0.00;99.90
9849;DHT22;4963;51.444;6.528;2023-02-26T05:44:24;0.00;99.90
9849;DHT22;4963;51.444;6.528;2023-02-26T05:46:52;0.00;99.90
9849;DHT22;4963;51.444;6.528;2023-02-26T05:49:19;0.00;99.90
9849;DHT22;4963;51.444;6.528;2023-02-26T05:51:45;-0.10;99.90
9849;DHT22;4963;51.444;6.528;2023-02-26T05:54:12;-0.10;99.90
9849;DHT22;4963;51.444;6.528;2023-02-26T05:56:39;-0.10;99.90
9849;DHT22;4963;51.444;6.528;2023-02-26T05:59:06;-0.10;99.90
9849;DHT22;4963;51.444;6.528;2023-02-26T06:01:33;-0.10;99.90
9849;DHT22;4963;51.444;6.528;2023-02-26T06:04:03;-0.20;99.90
9849;DHT22;4963;51.444;6.528;2023-02-26T06:06:30;-0.20;99.90
9849;DHT22;4963;51.444;6.528;2023-02-26T06:08:57;-0.20;99.90
9849;DHT22;4963;51.444;6.528;2023-02-26T06:11:25;-0.20;99.90
9849;DHT22;4963;51.444;6.528;2023-02-26T06:13:52;-0.30;99.90
9849;DHT22;4963;51.444;6.528;2023-02-26T06:16:19;-0.30;99.90
9849;DHT22;4963;51.444;6.528;2023-02-26T06:18:46;-0.30;99.90
9849;DHT22;4963;51.444;6.528;2023-02-26T06:21:16;-0.20;99.90
9849;DHT22;4963;51.444;6.528;2023-02-26T06:23:43;-0.30;99.90
9849;DHT22;4963;51.444;6.528;2023-02-26T06:26:10;-0.30;99.90
9849;DHT22;4963;51.444;6.528;2023-02-26T06:28:37;-0.30;99.90
9849;DHT22;4963;51.444;6.528;2023-02-26T06:31:03;-0.30;99.90
9849;DHT22;4963;51.444;6.528;2023-02-26T06:33:30;-0.30;99.90
9849;DHT22;4963;51.444;6.528;2023-02-26T06:35:57;-0.30;99.90
9849;DHT22;4963;51.444;6.528;2023-02-26T06:38:26;-0.30;99.90
9849;DHT22;4963;51.444;6.528;2023-02-26T06:40:53;-0.40;99.90
9849;DHT22;4963;51.444;6.528;2023-02-26T06:43:20;-0.40;99.90
9849;DHT22;4963;51.444;6.528;2023-02-26T06:45:47;-0.40;99.90
9849;DHT22;4963;51.444;6.528;2023-02-26T06:48:14;-0.40;99.90
9849;DHT22;4963;51.444;6.528;2023-02-26T06:50:40;-0.30;99.90
9849;DHT22;4963;51.444;6.528;2023-02-26T06:53:07;-0.40;99.90
9849;DHT22;4963;51.444;6.528;2023-02-26T06:55:36;-0.40;99.90
9849;DHT22;4963;51.444;6.528;2023-02-26T06:58:07;-0.40;99.90
9849;DHT22;4963;51.444;6.528;2023-02-26T07:00:34;-0.40;99.90
9849;DHT22;4963;51.444;6.528;2023-02-26T07:03:02;-0.20;99.90
9849;DHT22;4963;51.444;6.528;2023-02-26T07:05:29;-0.40;99.90
9849;DHT22;4963;51.444;6.528;2023-02-26T07:07:56;-0.40;99.90
9849;DHT22;4963;51.444;6.528;2023-02-26T07:10:23;-0.40;99.90
9849;DHT22;4963;51.444;6.528;2023-02-26T07:12:51;-0.40;99.90
9849;DHT22;4963;51.444;6.528;2023-02-26T07:15:18;-0.40;99.90
9849;DHT22;4963;51.444;6.528;2023-02-26T07:17:45;-0.50;99.90
9849;DHT22;4963;51.444;6.528;2023-02-26T07:20:12;-0.50;99.90
9849;DHT22;4963;51.444;6.528;2023-02-26T07:22:39;-0.50;99.90
9849;DHT22;4963;51.444;6.528;2023-02-26T07:25:06;-0.50;99.90
9849;DHT22;4963;51.444;6.528;2023-02-26T07:27:33;-0.40;99.90
9849;DHT22;4963;51.444;6.528;2023-02-26T07:30:01;-0.40;99.90
9849;DHT22;4963;51.444;6.528;2023-02-26T07:32:28;-0.20;99.90
9849;DHT22;4963;51.444;6.528;2023-02-26T07:34:55;0.10;99.90
9849;DHT22;4963;51.444;6.528;2023-02-26T07:37:22;0.40;99.90
9849;DHT22;4963;51.444;6.528;2023-02-26T07:39:50;0.50;99.90
9849;DHT22;4963;51.444;6.528;2023-02-26T07:42:17;0.50;99.90
9849;DHT22;4963;51.444;6.528;2023-02-26T07:44:44;0.50;99.90
9849;DHT22;4963;51.444;6.528;2023-02-26T07:47:12;0.50;99.90
9849;DHT22;4963;51.444;6.528;2023-02-26T07:49:39;0.50;99.90
9849;DHT22;4963;51.444;6.528;2023-02-26T07:52:06;0.50;99.90
9849;DHT22;4963;51.444;6.528;2023-02-26T07:54:33;0.40;99.90
9849;DHT22;4963;51.444;6.528;2023-02-26T07:56:59;0.40;99.90
9849;DHT22;4963;51.444;6.528;2023-02-26T07:59:26;0.40;99.90
9849;DHT22;4963;51.444;6.528;2023-02-26T08:01:54;0.40;99.90
9849;DHT22;4963;51.444;6.528;2023-02-26T08:04:22;0.40;99.90
9849;DHT22;4963;51.444;6.528;2023-02-26T08:06:49;0.40;99.90
9849;DHT22;4963;51.444;6.528;2023-02-26T08:09:19;0.40;99.90
9849;DHT22;4963;51.444;6.528;2023-02-26T08:11:45;0.40;99.90
9849;DHT22;4963;51.444;6.528;2023-02-26T08:14:12;0.50;99.90
9849;DHT22;4963;51.444;6.528;2023-02-26T08:16:39;0.50;99.90
9849;DHT22;4963;51.444;6.528;2023-02-26T08:19:06;0.60;99.90
9849;DHT22;4963;51.444;6.528;2023-02-26T08:21:34;0.60;99.90
9849;DHT22;4963;51.444;6.528;2023-02-26T08:24:01;0.80;99.90
9849;DHT22;4963;51.444;6.528;2023-02-26T08:26:28;0.80;99.90
9849;DHT22;4963;51.444;6.528;2023-02-26T08:28:54;0.80;99.90
9849;DHT22;4963;51.444;6.528;2023-02-26T08:31:21;1.00;99.90
9849;DHT22;4963;51.444;6.528;2023-02-26T08:33:48;1.00;99.90
9849;DHT22;4963;51.444;6.528;2023-02-26T08:36:15;1.10;99.90
9849;DHT22;4963;51.444;6.528;2023-02-26T08:38:43;1.20;99.90
9849;DHT22;4963;51.444;6.528;2023-02-26T08:41:10;1.30;99.90
9849;DHT22;4963;51.444;6.528;2023-02-26T08:43:36;1.50;99.90
9849;DHT22;4963;51.444;6.528;2023-02-26T08:46:04;1.50;99.90
9849;DHT22;4963;51.444;6.528;2023-02-26T08:48:31;1.60;99.90
9849;DHT22;4963;51.444;6.528;2023-02-26T08:50:57;1.60;99.90
9849;DHT22;4963;51.444;6.528;2023-02-26T08:53:24;1.70;99.90
9849;DHT22;4963;51.444;6.528;2023-02-26T08:55:52;1.70;99.90
9849;DHT22;4963;51.444;6.528;2023-02-26T08:58:20;1.80;99.90
9849;DHT22;4963;51.444;6.528;2023-02-26T09:00:47;1.80;99.90
9849;DHT22;4963;51.444;6.528;2023-02-26T09:03:14;1.80;99.90
9849;DHT22;4963;51.444;6.528;2023-02-26T09:05:41;1.80;99.90
9849;DHT22;4963;51.444;6.528;2023-02-26T09:08:08;1.80;99.90
9849;DHT22;4963;51.444;6.528;2023-02-26T09:10:36;1.90;99.90
9849;DHT22;4963;51.444;6.528;2023-02-26T09:13:04;1.90;99.90
9849;DHT22;4963;51.444;6.528;2023-02-26T09:15:31;2.00;99.90
9849;DHT22;4963;51.444;6.528;2023-02-26T09:17:58;2.00;99.90
9849;DHT22;4963;51.444;6.528;2023-02-26T09:20:25;2.00;99.90
9849;DHT22;4963;51.444;6.528;2023-02-26T09:22:52;2.10;99.90
9849;DHT22;4963;51.444;6.528;2023-02-26T09:25:18;2.10;99.90
9849;DHT22;4963;51.444;6.528;2023-02-26T09:27:45;2.00;99.90
9849;DHT22;4963;51.444;6.528;2023-02-26T09:30:14;2.00;99.90
9849;DHT22;4963;51.444;6.528;2023-02-26T09:32:41;2.00;99.90
9849;DHT22;4963;51.444;6.528;2023-02-26T09:35:08;2.00;99.90
9849;DHT22;4963;51.444;6.528;2023-02-26T09:37:36;2.10;99.90
9849;DHT22;4963;51.444;6.528;2023-02-26T09:40:03;2.10;99.90
9849;DHT22;4963;51.444;6.528;2023-02-26T09:42:45;2.10;99.90
9849;DHT22;4963;51.444;6.528;2023-02-26T09:45:23;2.20;99.90
9849;DHT22;4963;51.444;6.528;2023-02-26T09:47:52;2.20;99.90
9849;DHT22;4963;51.444;6.528;2023-02-26T09:50:22;2.20;99.90
9849;DHT22;4963;51.444;6.528;2023-02-26T09:52:52;2.20;99.90
9849;DHT22;4963;51.444;6.528;2023-02-26T09:55:26;2.30;99.90
9849;DHT22;4963;51.444;6.528;2023-02-26T09:57:56;2.40;99.90
9849;DHT22;4963;51.444;6.528;2023-02-26T10:00:30;2.40;99.90
9849;DHT22;4963;51.444;6.528;2023-02-26T10:03:04;2.50;99.30
9849;DHT22;4963;51.444;6.528;2023-02-26T10:05:40;2.50;98.50
9849;DHT22;4963;51.444;6.528;2023-02-26T10:08:14;2.50;98.10
9849;DHT22;4963;51.444;6.528;2023-02-26T10:10:47;2.50;99.60
9849;DHT22;4963;51.444;6.528;2023-02-26T10:13:33;2.60;99.80
9849;DHT22;4963;51.444;6.528;2023-02-26T10:16:06;2.60;98.80
9849;DHT22;4963;51.444;6.528;2023-02-26T10:18:38;2.70;99.10
9849;DHT22;4963;51.444;6.528;2023-02-26T10:21:10;2.70;98.80
9849;DHT22;4963;51.444;6.528;2023-02-26T10:23:41;2.70;98.30
9849;DHT22;4963;51.444;6.528;2023-02-26T10:26:19;2.70;97.60
9849;DHT22;4963;51.444;6.528;2023-02-26T10:28:53;2.70;96.70
9849;DHT22;4963;51.444;6.528;2023-02-26T10:31:30;2.60;97.00
9849;DHT22;4963;51.444;6.528;2023-02-26T10:34:07;2.60;97.40
9849;DHT22;4963;51.444;6.528;2023-02-26T10:36:42;2.60;96.50
9849;DHT22;4963;51.444;6.528;2023-02-26T10:39:20;2.70;96.60
9849;DHT22;4963;51.444;6.528;2023-02-26T10:41:48;2.70;96.40
9849;DHT22;4963;51.444;6.528;2023-02-26T10:44:20;2.90;95.70
9849;DHT22;4963;51.444;6.528;2023-02-26T10:47:09;3.00;95.10
9849;DHT22;4963;51.444;6.528;2023-02-26T10:49:53;2.90;95.50
9849;DHT22;4963;51.444;6.528;2023-02-26T10:52:23;2.70;95.30
9849;DHT22;4963;51.444;6.528;2023-02-26T10:55:07;2.60;95.60
9849;DHT22;4963;51.444;6.528;2023-02-26T10:57:45;2.70;95.40
9849;DHT22;4963;51.444;6.528;2023-02-26T11:00:16;2.80;95.10
9849;DHT22;4963;51.444;6.528;2023-02-26T11:02:48;2.90;94.20
9849;DHT22;4963;51.444;6.528;2023-02-26T11:05:19;2.90;94.00
9849;DHT22;4963;51.444;6.528;2023-02-26T11:07:50;2.80;94.10
9849;DHT22;4963;51.444;6.528;2023-02-26T11:10:20;2.90;93.90
9849;DHT22;4963;51.444;6.528;2023-02-26T11:12:48;2.80;93.00
9849;DHT22;4963;51.444;6.528;2023-02-26T11:15:17;2.90;92.60
9849;DHT22;4963;51.444;6.528;2023-02-26T11:17:47;2.90;92.60
9849;DHT22;4963;51.444;6.528;2023-02-26T11:20:24;2.90;93.30
9849;DHT22;4963;51.444;6.528;2023-02-26T11:22:53;3.00;93.00
9849;DHT22;4963;51.444;6.528;2023-02-26T11:25:24;3.20;92.60
9849;DHT22;4963;51.444;6.528;2023-02-26T11:27:58;3.30;92.30
9849;DHT22;4963;51.444;6.528;2023-02-26T11:30:31;3.30;91.70
9849;DHT22;4963;51.444;6.528;2023-02-26T11:33:11;3.40;92.60
9849;DHT22;4963;51.444;6.528;2023-02-26T11:35:39;3.30;91.40
9849;DHT22;4963;51.444;6.528;2023-02-26T11:38:13;3.10;91.50
9849;DHT22;4963;51.444;6.528;2023-02-26T11:40:45;3.00;92.80
9849;DHT22;4963;51.444;6.528;2023-02-26T11:43:15;3.10;92.70
9849;DHT22;4963;51.444;6.528;2023-02-26T11:45:45;3.20;93.10
9849;DHT22;4963;51.444;6.528;2023-02-26T11:48:15;3.20;93.20
9849;DHT22;4963;51.444;6.528;2023-02-26T11:50:46;3.30;92.90
9849;DHT22;4963;51.444;6.528;2023-02-26T11:53:18;3.40;92.00
9849;DHT22;4963;51.444;6.528;2023-02-26T11:55:51;3.70;92.50
9849;DHT22;4963;51.444;6.528;2023-02-26T11:58:20;3.50;92.90
9849;DHT22;4963;51.444;6.528;2023-02-26T12:00:48;3.40;92.50
9849;DHT22;4963;51.444;6.528;2023-02-26T12:03:20;3.50;92.60
9849;DHT22;4963;51.444;6.528;2023-02-26T12:05:48;3.40;92.90
9849;DHT22;4963;51.444;6.528;2023-02-26T12:08:23;3.30;91.60
9849;DHT22;4963;51.444;6.528;2023-02-26T12:11:01;3.20;92.60
9849;DHT22;4963;51.444;6.528;2023-02-26T12:13:34;3.20;93.00
9849;DHT22;4963;51.444;6.528;2023-02-26T12:16:12;3.20;92.30
9849;DHT22;4963;51.444;6.528;2023-02-26T12:18:52;3.20;92.40
9849;DHT22;4963;51.444;6.528;2023-02-26T12:21:30;3.20;93.00
9849;DHT22;4963;51.444;6.528;2023-02-26T12:27:16;3.20;93.60
9849;DHT22;4963;51.444;6.528;2023-02-26T12:30:09;3.10;92.40
9849;DHT22;4963;51.444;6.528;2023-02-26T12:32:55;3.00;91.80
9849;DHT22;4963;51.444;6.528;2023-02-26T12:35:34;3.00;92.00
9849;DHT22;4963;51.444;6.528;2023-02-26T12:38:18;3.00;92.50
9849;DHT22;4963;51.444;6.528;2023-02-26T12:41:00;3.10;92.50
9849;DHT22;4963;51.444;6.528;2023-02-26T12:43:34;3.20;91.50
9849;DHT22;4963;51.444;6.528;2023-02-26T12:46:07;3.30;90.90
9849;DHT22;4963;51.444;6.528;2023-02-26T12:51:47;3.30;90.40
9849;DHT22;4963;51.444;6.528;2023-02-26T12:54:47;3.30;90.50
9849;DHT22;4963;51.444;6.528;2023-02-26T12:57:41;3.30;92.00
9849;DHT22;4963;51.444;6.528;2023-02-26T13:00:19;3.40;91.60
9849;DHT22;4963;51.444;6.528;2023-02-26T13:08:51;4.00;91.10
9849;DHT22;4963;51.444;6.528;2023-02-26T13:11:28;4.10;91.10
9849;DHT22;4963;51.444;6.528;2023-02-26T13:14:24;4.20;89.10
9849;DHT22;4963;51.444;6.528;2023-02-26T13:16:58;4.40;87.60
9849;DHT22;4963;51.444;6.528;2023-02-26T13:19:36;4.10;87.60
9849;DHT22;4963;51.444;6.528;2023-02-26T13:22:13;4.10;87.70
9849;DHT22;4963;51.444;6.528;2023-02-26T13:24:46;4.00;87.20
9849;DHT22;4963;51.444;6.528;2023-02-26T13:27:15;4.10;89.60
9849;DHT22;4963;51.444;6.528;2023-02-26T13:29:46;4.20;88.60
9849;DHT22;4963;51.444;6.528;2023-02-26T13:32:16;4.30;87.50
9849;DHT22;4963;51.444;6.528;2023-02-26T13:34:49;4.10;86.00
9849;DHT22;4963;51.444;6.528;2023-02-26T13:37:23;4.20;88.50
9849;DHT22;4963;51.444;6.528;2023-02-26T13:40:00;4.20;89.40
9849;DHT22;4963;51.444;6.528;2023-02-26T13:42:35;4.30;88.20
9849;DHT22;4963;51.444;6.528;2023-02-26T13:45:29;4.20;89.00
9849;DHT22;4963;51.444;6.528;2023-02-26T13:48:15;4.20;89.70
9849;DHT22;4963;51.444;6.528;2023-02-26T13:50:50;4.30;89.10
9849;DHT22;4963;51.444;6.528;2023-02-26T13:53:45;4.30;88.50
9849;DHT22;4963;51.444;6.528;2023-02-26T13:56:15;4.40;90.00
9849;DHT22;4963;51.444;6.528;2023-02-26T13:58:47;4.40;90.00
9849;DHT22;4963;51.444;6.528;2023-02-26T14:01:16;4.30;88.00
9849;DHT22;4963;51.444;6.528;2023-02-26T14:03:49;4.20;88.00
9849;DHT22;4963;51.444;6.528;2023-02-26T14:06:35;4.20;89.10
9849;DHT22;4963;51.444;6.528;2023-02-26T14:09:04;4.30;87.90
9849;DHT22;4963;51.444;6.528;2023-02-26T14:11:55;4.40;88.70
9849;DHT22;4963;51.444;6.528;2023-02-26T14:14:29;4.60;89.80
9849;DHT22;4963;51.444;6.528;2023-02-26T14:17:17;4.50;90.70
9849;DHT22;4963;51.444;6.528;2023-02-26T14:20:16;4.50;89.00
9849;DHT22;4963;51.444;6.528;2023-02-26T14:22:47;4.40;85.90
9849;DHT22;4963;51.444;6.528;2023-02-26T14:25:18;4.40;84.40
9849;DHT22;4963;51.444;6.528;2023-02-26T14:27:49;4.40;85.70
9849;DHT22;4963;51.444;6.528;2023-02-26T14:30:24;4.40;87.10
9849;DHT22;4963;51.444;6.528;2023-02-26T14:32:55;4.30;87.50
9849;DHT22;4963;51.444;6.528;2023-02-26T14:35:33;4.40;90.10
9849;DHT22;4963;51.444;6.528;2023-02-26T14:38:02;4.40;90.60
9849;DHT22;4963;51.444;6.528;2023-02-26T14:40:35;4.40;90.80
9849;DHT22;4963;51.444;6.528;2023-02-26T14:43:06;4.30;90.60
9849;DHT22;4963;51.444;6.528;2023-02-26T14:45:37;4.30;91.10
9849;DHT22;4963;51.444;6.528;2023-02-26T14:48:06;4.40;90.30
9849;DHT22;4963;51.444;6.528;2023-02-26T14:50:40;4.30;90.20
9849;DHT22;4963;51.444;6.528;2023-02-26T14:56:16;4.30;90.00
9849;DHT22;4963;51.444;6.528;2023-02-26T14:59:00;4.40;90.40
9849;DHT22;4963;51.444;6.528;2023-02-26T15:01:41;4.40;88.70
9849;DHT22;4963;51.444;6.528;2023-02-26T15:04:22;4.40;89.60
9849;DHT22;4963;51.444;6.528;2023-02-26T15:07:08;4.30;89.60
9849;DHT22;4963;51.444;6.528;2023-02-26T15:09:45;4.40;89.70
9849;DHT22;4963;51.444;6.528;2023-02-26T15:12:27;4.30;90.00
9849;DHT22;4963;51.444;6.528;2023-02-26T15:15:07;4.40;89.50
9849;DHT22;4963;51.444;6.528;2023-02-26T15:17:46;4.30;89.60
9849;DHT22;4963;51.444;6.528;2023-02-26T15:20:23;4.40;90.50
9849;DHT22;4963;51.444;6.528;2023-02-26T15:23:02;4.90;91.30
9849;DHT22;4963;51.444;6.528;2023-02-26T15:25:35;4.80;90.10
9849;DHT22;4963;51.444;6.528;2023-02-26T15:28:04;4.40;90.30
9849;DHT22;4963;51.444;6.528;2023-02-26T15:30:33;4.40;90.50
9849;DHT22;4963;51.444;6.528;2023-02-26T15:33:04;4.50;90.10
9849;DHT22;4963;51.444;6.528;2023-02-26T15:35:33;4.50;90.20
9849;DHT22;4963;51.444;6.528;2023-02-26T15:38:02;4.40;90.40
9849;DHT22;4963;51.444;6.528;2023-02-26T15:40:31;4.40;90.50
9849;DHT22;4963;51.444;6.528;2023-02-26T15:42:59;4.40;90.80
9849;DHT22;4963;51.444;6.528;2023-02-26T15:45:34;4.40;90.20
9849;DHT22;4963;51.444;6.528;2023-02-26T15:48:04;4.40;90.60
9849;DHT22;4963;51.444;6.528;2023-02-26T15:50:37;4.40;90.80
9849;DHT22;4963;51.444;6.528;2023-02-26T15:53:07;4.40;90.60
9849;DHT22;4963;51.444;6.528;2023-02-26T15:55:37;4.40;90.80
9849;DHT22;4963;51.444;6.528;2023-02-26T15:58:05;4.40;90.80
9849;DHT22;4963;51.444;6.528;2023-02-26T16:00:35;4.30;91.30
9849;DHT22;4963;51.444;6.528;2023-02-26T16:03:03;4.40;91.10
9849;DHT22;4963;51.444;6.528;2023-02-26T16:05:30;4.40;91.50
9849;DHT22;4963;51.444;6.528;2023-02-26T16:07:57;4.30;91.90
9849;DHT22;4963;51.444;6.528;2023-02-26T16:10:32;4.30;91.60
9849;DHT22;4963;51.444;6.528;2023-02-26T16:13:00;4.30;91.90
9849;DHT22;4963;51.444;6.528;2023-02-26T16:15:30;4.30;92.80
9849;DHT22;4963;51.444;6.528;2023-02-26T16:17:58;4.20;93.00
9849;DHT22;4963;51.444;6.528;2023-02-26T16:20:36;4.20;93.10
9849;DHT22;4963;51.444;6.528;2023-02-26T16:23:06;4.30;92.10
9849;DHT22;4963;51.444;6.528;2023-02-26T16:25:39;4.20;92.90
9849;DHT22;4963;51.444;6.528;2023-02-26T16:28:14;4.20;93.00
9849;DHT22;4963;51.444;6.528;2023-02-26T16:30:43;4.20;93.00
9849;DHT22;4963;51.444;6.528;2023-02-26T16:33:12;4.10;92.90
9849;DHT22;4963;51.444;6.528;2023-02-26T16:35:44;4.10;92.50
9849;DHT22;4963;51.444;6.528;2023-02-26T16:38:16;4.10;91.70
9849;DHT22;4963;51.444;6.528;2023-02-26T16:40:44;4.00;91.40
9849;DHT22;4963;51.444;6.528;2023-02-26T16:43:33;4.10;91.90
9849;DHT22;4963;51.444;6.528;2023-02-26T16:46:04;4.00;91.90
9849;DHT22;4963;51.444;6.528;2023-02-26T16:48:36;4.00;91.70
9849;DHT22;4963;51.444;6.528;2023-02-26T16:51:09;4.00;91.40
9849;DHT22;4963;51.444;6.528;2023-02-26T16:53:41;3.90;91.40
9849;DHT22;4963;51.444;6.528;2023-02-26T16:56:11;3.90;91.40
9849;DHT22;4963;51.444;6.528;2023-02-26T16:58:41;3.90;91.70